Time;durP1;ratioP1;P1;durP2;ratioP2;P2;SDS_P1;SDS_P2;PMS_P1;PMS_P2;Temp;Humidity;BMP_temperature;BMP_pressure;BME280_temperature;BME280_humidity;BME280_pressure;Samples;Min_cycle;Max_cycle;Signal;HPM_P1;HPM_P2
2022/07/12 00:00:22;;;;;;;40.63;3.63;;;;;;;;;;738815;187;914481;-59
2022/07/12 00:02:48;;;;;;;12.20;2.43;;;;;;;;;;744350;185;933406;-55
2022/07/12 00:05:13;;;;;;;11.10;3.13;;;;;;;;;;744295;186;913111;-60
2022/07/12 00:07:39;;;;;;;8.63;3.07;;;;;;;;;;737560;188;917597;-59
2022/07/12 00:10:05;;;;;;;7.80;2.43;;;;;;;;;;738205;187;922329;-59
2022/07/12 00:12:31;;;;;;;3.43;2.13;;;;;;;;;;735808;189;918995;-58
2022/07/12 00:14:57;;;;;;;12.23;2.90;;;;;;;;;;733900;191;716463;-58
2022/07/12 00:17:23;;;;;;;10.93;3.27;;;;;;;;;;737799;187;919573;-60
2022/07/12 00:19:49;;;;;;;14.40;3.97;;;;;;;;;;735612;187;918575;-59
2022/07/12 00:22:15;;;;;;;11.67;3.10;;;;;;;;;;746754;186;920109;-57
2022/07/12 00:24:40;;;;;;;14.73;3.33;;;;;;;;;;742523;187;922226;-57
2022/07/12 00:27:06;;;;;;;7.53;3.73;;;;;;;;;;738873;187;919825;-57
2022/07/12 00:29:32;;;;;;;9.37;3.43;;;;;;;;;;745303;188;822077;-57
2022/07/12 00:31:58;;;;;;;16.87;3.90;;;;;;;;;;740086;186;919227;-56
2022/07/12 00:34:24;;;;;;;18.47;3.80;;;;;;;;;;736881;188;915276;-60
2022/07/12 00:36:50;;;;;;;14.15;4.53;;;;;;;;;;739627;185;813409;-57
2022/07/12 00:39:15;;;;;;;9.17;3.40;;;;;;;;;;741025;187;914646;-59
2022/07/12 00:41:42;;;;;;;14.98;4.60;;;;;;;;;;737070;187;944576;-58
2022/07/12 00:44:07;;;;;;;7.77;3.30;;;;;;;;;;725343;188;919771;-57
2022/07/12 00:46:33;;;;;;;9.80;2.80;;;;;;;;;;740608;187;915838;-60
2022/07/12 00:48:59;;;;;;;21.83;4.30;;;;;;;;;;740567;186;914474;-59
2022/07/12 00:51:25;;;;;;;9.73;2.90;;;;;;;;;;736317;188;922878;-60
2022/07/12 00:53:50;;;;;;;19.37;3.77;;;;;;;;;;746549;187;916802;-59
2022/07/12 00:56:16;;;;;;;27.53;3.50;;;;;;;;;;737978;185;921414;-57
2022/07/12 00:58:42;;;;;;;18.47;3.20;;;;;;;;;;738743;188;885826;-60
2022/07/12 01:01:08;;;;;;;24.70;3.92;;;;;;;;;;736941;187;919553;-57
2022/07/12 01:03:34;;;;;;;17.03;4.20;;;;;;;;;;744886;186;932047;-60
2022/07/12 01:06:00;;;;;;;11.13;3.30;;;;;;;;;;738667;188;909338;-59
2022/07/12 01:08:26;;;;;;;16.13;4.30;;;;;;;;;;739813;187;918698;-57
2022/07/12 01:10:51;;;;;;;9.83;3.50;;;;;;;;;;743702;188;817754;-60
2022/07/12 01:13:17;;;;;;;17.27;3.60;;;;;;;;;;735286;188;921023;-56
2022/07/12 01:15:43;;;;;;;39.57;5.50;;;;;;;;;;740200;188;823457;-56
2022/07/12 01:18:09;;;;;;;17.23;3.83;;;;;;;;;;747435;187;922318;-57
2022/07/12 01:20:35;;;;;;;18.07;4.50;;;;;;;;;;721641;191;967908;-56
2022/07/12 01:23:01;;;;;;;27.43;5.50;;;;;;;;;;738473;190;820251;-56
2022/07/12 01:25:26;;;;;;;13.90;3.20;;;;;;;;;;743909;185;944919;-60
2022/07/12 01:27:52;;;;;;;13.33;3.50;;;;;;;;;;733469;187;916924;-56
2022/07/12 01:30:18;;;;;;;17.47;3.93;;;;;;;;;;738161;187;934703;-57
2022/07/12 01:32:44;;;;;;;13.30;3.77;;;;;;;;;;737271;187;919396;-57
2022/07/12 01:35:10;;;;;;;36.97;3.63;;;;;;;;;;742690;187;919399;-59
2022/07/12 01:37:37;;;;;;;8.57;5.53;;;;;;;;;;735117;189;920081;-58
2022/07/12 01:40:03;;;;;;;20.93;4.20;;;;;;;;;;736275;187;918783;-60
2022/07/12 01:42:29;;;;;;;13.77;3.30;;;;;;;;;;743761;187;919405;-59
2022/07/12 01:44:55;;;;;;;10.33;3.60;;;;;;;;;;745196;183;919440;-59
2022/07/12 01:47:20;;;;;;;14.17;3.20;;;;;;;;;;736755;187;871429;-61
2022/07/12 01:49:46;;;;;;;7.83;3.77;;;;;;;;;;746281;187;820591;-57
2022/07/12 01:52:12;;;;;;;23.53;4.90;;;;;;;;;;739110;187;944052;-59
2022/07/12 01:54:38;;;;;;;27.53;3.67;;;;;;;;;;737865;187;817445;-61
2022/07/12 01:57:04;;;;;;;25.67;6.10;;;;;;;;;;742138;183;918732;-59
2022/07/12 01:59:30;;;;;;;17.70;3.30;;;;;;;;;;737980;190;918821;-61
2022/07/12 02:01:56;;;;;;;14.40;5.00;;;;;;;;;;734963;187;923994;-57
2022/07/12 02:04:21;;;;;;;13.20;3.83;;;;;;;;;;738891;187;918726;-61
2022/07/12 02:06:47;;;;;;;14.80;4.20;;;;;;;;;;746560;187;712412;-57
2022/07/12 02:09:13;;;;;;;13.90;3.53;;;;;;;;;;739682;187;719820;-56
2022/07/12 02:11:39;;;;;;;14.27;4.30;;;;;;;;;;736095;187;919258;-57
2022/07/12 02:14:05;;;;;;;13.70;4.03;;;;;;;;;;742945;187;916992;-57
2022/07/12 02:16:31;;;;;;;16.43;3.97;;;;;;;;;;735830;187;916860;-61
2022/07/12 02:18:56;;;;;;;22.60;4.50;;;;;;;;;;738547;187;918717;-59
2022/07/12 02:21:22;;;;;;;15.93;4.10;;;;;;;;;;740751;187;857488;-58
2022/07/12 02:23:48;;;;;;;29.13;4.57;;;;;;;;;;747092;187;919304;-61
2022/07/12 02:26:15;;;;;;;9.20;3.83;;;;;;;;;;737940;187;918920;-62
2022/07/12 02:28:40;;;;;;;12.70;3.90;;;;;;;;;;737509;189;918928;-57
2022/07/12 02:31:06;;;;;;;22.20;4.60;;;;;;;;;;742549;188;914656;-60
2022/07/12 02:33:33;;;;;;;15.50;4.30;;;;;;;;;;741563;186;919621;-60
2022/07/12 02:35:59;;;;;;;15.17;4.60;;;;;;;;;;737048;187;915897;-57
2022/07/12 02:38:25;;;;;;;26.93;4.67;;;;;;;;;;745048;187;917424;-60
2022/07/12 02:40:53;;;;;;;11.93;5.10;;;;;;;;;;735695;188;928212;-57
2022/07/12 02:43:22;;;;;;;22.53;4.20;;;;;;;;;;740823;185;915104;-61
2022/07/12 02:45:48;;;;;;;14.43;4.57;;;;;;;;;;738835;185;918973;-59
2022/07/12 02:48:14;;;;;;;12.90;4.00;;;;;;;;;;733760;191;919206;-58
2022/07/12 02:50:40;;;;;;;16.43;4.80;;;;;;;;;;740416;187;819362;-59
2022/07/12 02:53:05;;;;;;;20.30;5.67;;;;;;;;;;742091;187;817042;-57
2022/07/12 02:55:31;;;;;;;18.17;5.23;;;;;;;;;;741989;187;1069647;-58
2022/07/12 02:57:57;;;;;;;18.73;4.17;;;;;;;;;;728418;187;914465;-58
2022/07/12 03:00:23;;;;;;;13.87;5.13;;;;;;;;;;727978;187;853094;-61
2022/07/12 03:02:49;;;;;;;15.40;5.80;;;;;;;;;;734636;187;919305;-58
2022/07/12 03:05:15;;;;;;;27.93;5.67;;;;;;;;;;731905;187;1006614;-62
2022/07/12 03:07:40;;;;;;;15.67;4.90;;;;;;;;;;729140;189;919470;-58
2022/07/12 03:10:06;;;;;;;17.33;5.17;;;;;;;;;;731111;187;920966;-59
2022/07/12 03:12:32;;;;;;;12.53;6.27;;;;;;;;;;742366;187;920223;-61
2022/07/12 03:14:58;;;;;;;17.20;4.95;;;;;;;;;;735031;188;893872;-58
2022/07/12 03:17:24;;;;;;;8.93;5.43;;;;;;;;;;732020;189;918163;-61
2022/07/12 03:19:50;;;;;;;11.47;5.40;;;;;;;;;;738354;190;830976;-62
2022/07/12 03:22:16;;;;;;;10.65;6.00;;;;;;;;;;734991;187;918767;-58
2022/07/12 03:24:41;;;;;;;14.43;6.00;;;;;;;;;;736586;187;919293;-61
2022/07/12 03:27:07;;;;;;;10.53;6.20;;;;;;;;;;732654;191;918232;-61
2022/07/12 03:29:33;;;;;;;7.20;5.27;;;;;;;;;;731572;190;921568;-58
2022/07/12 03:31:59;;;;;;;13.97;4.43;;;;;;;;;;733992;187;921202;-61
2022/07/12 03:34:25;;;;;;;13.90;6.17;;;;;;;;;;735381;187;915269;-59
2022/07/12 03:36:51;;;;;;;17.70;6.27;;;;;;;;;;732039;187;915697;-58
2022/07/12 03:39:17;;;;;;;10.17;5.57;;;;;;;;;;739441;187;856972;-58
2022/07/12 03:41:42;;;;;;;13.57;8.23;;;;;;;;;;739653;187;916544;-58
2022/07/12 03:44:08;;;;;;;10.50;5.53;;;;;;;;;;744059;187;818201;-62
2022/07/12 03:46:34;;;;;;;6.73;5.00;;;;;;;;;;742515;185;818699;-58
2022/07/12 03:49:00;;;;;;;18.27;6.37;;;;;;;;;;729059;190;864910;-61
2022/07/12 03:51:26;;;;;;;14.73;5.47;;;;;;;;;;738966;187;917910;-58
2022/07/12 03:53:52;;;;;;;13.73;5.95;;;;;;;;;;739195;187;919104;-58
2022/07/12 03:58:49;;;;;;;12.15;6.40;;;;;;;;;;737535;187;919857;-62
2022/07/12 04:01:15;;;;;;;22.17;7.37;;;;;;;;;;742095;185;944593;-62
2022/07/12 04:03:41;;;;;;;18.53;7.40;;;;;;;;;;728960;191;917934;-57
2022/07/12 04:06:07;;;;;;;30.90;9.73;;;;;;;;;;736652;188;825660;-58
2022/07/12 04:08:32;;;;;;;15.47;6.57;;;;;;;;;;741012;187;918961;-62
2022/07/12 04:10:58;;;;;;;12.37;7.50;;;;;;;;;;737633;187;918689;-62
2022/07/12 04:13:24;;;;;;;13.03;8.07;;;;;;;;;;737111;187;904093;-62
2022/07/12 04:15:50;;;;;;;17.80;9.50;;;;;;;;;;740145;187;918740;-59
2022/07/12 04:18:16;;;;;;;26.27;11.00;;;;;;;;;;742731;184;908287;-62
2022/07/12 04:20:42;;;;;;;23.80;11.70;;;;;;;;;;729868;187;921885;-62
2022/07/12 04:23:09;;;;;;;21.77;11.13;;;;;;;;;;739056;187;918697;-63
2022/07/12 04:25:34;;;;;;;11.87;10.40;;;;;;;;;;744835;187;859779;-63
2022/07/12 04:28:00;;;;;;;17.63;12.03;;;;;;;;;;737338;187;909295;-63
2022/07/12 04:30:28;;;;;;;20.50;10.53;;;;;;;;;;736438;187;948581;-63
2022/07/12 04:32:51;;;;;;;18.10;11.17;;;;;;;;;;746441;187;774704;-62
2022/07/12 04:35:17;;;;;;;15.73;11.40;;;;;;;;;;734924;187;918265;-58
2022/07/12 04:37:43;;;;;;;13.60;10.83;;;;;;;;;;735754;187;1025556;-61
2022/07/12 04:40:10;;;;;;;17.43;11.60;;;;;;;;;;741099;187;917411;-63
2022/07/12 04:42:36;;;;;;;15.43;11.43;;;;;;;;;;738538;188;805999;-63
2022/07/12 04:45:01;;;;;;;21.17;10.90;;;;;;;;;;737498;187;818626;-63
2022/07/12 04:47:27;;;;;;;14.60;11.02;;;;;;;;;;737534;187;819420;-59
2022/07/12 04:49:53;;;;;;;23.83;13.27;;;;;;;;;;742347;187;822332;-59
2022/07/12 04:52:19;;;;;;;33.57;13.63;;;;;;;;;;740981;187;624825;-59
2022/07/12 04:54:45;;;;;;;21.37;14.90;;;;;;;;;;740603;187;626232;-63
2022/07/12 04:57:11;;;;;;;24.67;15.37;;;;;;;;;;744500;187;625972;-62
2022/07/12 04:59:37;;;;;;;25.63;16.80;;;;;;;;;;743957;187;627432;-63
2022/07/12 05:02:03;;;;;;;23.77;16.63;;;;;;;;;;742761;184;715543;-62
2022/07/12 05:04:28;;;;;;;23.70;16.63;;;;;;;;;;743211;187;913897;-59
2022/07/12 05:06:54;;;;;;;39.30;19.03;;;;;;;;;;736172;187;818495;-63
2022/07/12 05:09:20;;;;;;;29.80;17.60;;;;;;;;;;740871;187;632114;-62
2022/07/12 05:11:46;;;;;;;36.90;17.47;;;;;;;;;;742609;187;815523;-58
2022/07/12 05:14:12;;;;;;;24.87;18.43;;;;;;;;;;741677;187;900731;-63
2022/07/12 05:16:38;;;;;;;30.17;18.50;;;;;;;;;;736587;187;1092918;-62
2022/07/12 05:19:04;;;;;;;25.13;16.87;;;;;;;;;;738834;187;919712;-59
2022/07/12 05:21:29;;;;;;;25.60;18.43;;;;;;;;;;741063;187;936599;-62
2022/07/12 05:23:55;;;;;;;24.93;18.63;;;;;;;;;;732321;184;918714;-63
2022/07/12 05:26:21;;;;;;;23.13;17.73;;;;;;;;;;737279;187;919007;-58
2022/07/12 05:28:47;;;;;;;40.03;18.57;;;;;;;;;;741425;187;890167;-58
2022/07/12 05:31:13;;;;;;;19.87;16.47;;;;;;;;;;736909;187;812356;-59
2022/07/12 05:33:39;;;;;;;22.60;14.70;;;;;;;;;;741536;183;919268;-59
2022/07/12 05:36:05;;;;;;;19.70;14.30;;;;;;;;;;729134;190;909114;-62
2022/07/12 05:38:31;;;;;;;16.00;11.73;;;;;;;;;;746841;187;817673;-59
2022/07/12 05:40:56;;;;;;;17.98;11.38;;;;;;;;;;736802;187;819494;-59
2022/07/12 05:43:22;;;;;;;17.20;9.00;;;;;;;;;;742580;186;815941;-58
2022/07/12 05:45:48;;;;;;;19.53;10.53;;;;;;;;;;745227;187;816295;-62
2022/07/12 05:48:15;;;;;;;15.50;9.67;;;;;;;;;;740883;187;919335;-58
2022/07/12 05:50:40;;;;;;;15.00;8.73;;;;;;;;;;737995;188;918146;-61
2022/07/12 05:55:37;;;;;;;10.53;7.10;;;;;;;;;;749516;186;613972;-62
2022/07/12 05:58:03;;;;;;;14.23;6.80;;;;;;;;;;740333;187;624829;-62
2022/07/12 06:00:29;;;;;;;7.80;5.40;;;;;;;;;;740905;187;635953;-62
2022/07/12 06:02:55;;;;;;;8.37;5.33;;;;;;;;;;742784;187;629104;-62
2022/07/12 06:05:22;;;;;;;11.50;7.27;;;;;;;;;;742080;187;633519;-62
2022/07/12 06:07:46;;;;;;;11.80;8.07;;;;;;;;;;740781;187;618853;-62
2022/07/12 06:10:12;;;;;;;10.40;5.93;;;;;;;;;;747787;187;619003;-58
2022/07/12 06:12:38;;;;;;;13.50;4.87;;;;;;;;;;742603;187;626907;-61
2022/07/12 06:15:04;;;;;;;6.63;4.20;;;;;;;;;;742384;188;626586;-58
2022/07/12 06:17:30;;;;;;;5.90;2.87;;;;;;;;;;745604;187;616921;-59
2022/07/12 06:19:56;;;;;;;5.13;2.73;;;;;;;;;;742531;187;622260;-58
2022/07/12 06:22:22;;;;;;;3.80;3.10;;;;;;;;;;740108;187;919064;-58
2022/07/12 06:24:47;;;;;;;12.07;2.60;;;;;;;;;;737803;187;892706;-57
2022/07/12 06:27:13;;;;;;;4.17;2.40;;;;;;;;;;741182;187;821763;-58
2022/07/12 06:29:39;;;;;;;8.00;2.97;;;;;;;;;;737791;187;916723;-61
2022/07/12 06:32:05;;;;;;;4.53;2.43;;;;;;;;;;736069;188;819804;-58
2022/07/12 06:34:31;;;;;;;4.60;2.37;;;;;;;;;;742489;187;821006;-58
2022/07/12 06:36:57;;;;;;;4.80;2.53;;;;;;;;;;737488;187;922337;-59
2022/07/12 06:39:23;;;;;;;7.67;2.57;;;;;;;;;;736611;187;854585;-59
2022/07/12 06:41:49;;;;;;;4.53;1.50;;;;;;;;;;741638;187;880798;-57
2022/07/12 06:44:15;;;;;;;3.53;1.33;;;;;;;;;;738652;187;919612;-57
2022/07/12 06:46:40;;;;;;;5.03;1.60;;;;;;;;;;741748;186;919806;-58
2022/07/12 06:49:06;;;;;;;2.00;1.17;;;;;;;;;;738967;187;919092;-60
2022/07/12 06:51:32;;;;;;;2.67;1.47;;;;;;;;;;749828;187;718334;-59
2022/07/12 06:53:58;;;;;;;1.83;1.10;;;;;;;;;;739228;187;918993;-61
2022/07/12 06:56:24;;;;;;;2.33;1.27;;;;;;;;;;737004;187;938065;-56
2022/07/12 06:58:50;;;;;;;2.30;1.17;;;;;;;;;;745074;187;918908;-56
2022/07/12 07:01:16;;;;;;;2.30;1.20;;;;;;;;;;736525;187;918986;-60
2022/07/12 07:03:41;;;;;;;1.80;1.00;;;;;;;;;;737158;187;919865;-60
2022/07/12 07:06:07;;;;;;;2.60;1.40;;;;;;;;;;743270;189;948139;-56
2022/07/12 07:08:33;;;;;;;5.13;1.20;;;;;;;;;;736311;186;918717;-57
2022/07/12 07:10:59;;;;;;;3.40;1.30;;;;;;;;;;738019;185;918495;-59
2022/07/12 07:13:25;;;;;;;5.13;1.60;;;;;;;;;;737642;188;918094;-60
2022/07/12 07:15:50;;;;;;;2.20;1.30;;;;;;;;;;730153;190;919721;-59
2022/07/12 07:18:16;;;;;;;4.97;1.37;;;;;;;;;;737762;187;919524;-61
2022/07/12 07:20:42;;;;;;;3.13;1.10;;;;;;;;;;738169;188;918909;-59
2022/07/12 07:23:10;;;;;;;3.90;1.00;;;;;;;;;;739593;189;919337;-57
2022/07/12 07:25:34;;;;;;;2.20;1.07;;;;;;;;;;737132;187;817329;-58
2022/07/12 07:28:00;;;;;;;2.10;1.00;;;;;;;;;;738205;187;910665;-58
2022/07/12 07:32:57;;;;;;;4.83;1.23;;;;;;;;;;743580;187;815016;-56
2022/07/12 07:35:23;;;;;;;2.20;0.90;;;;;;;;;;720983;191;919023;-57
2022/07/12 07:37:49;;;;;;;9.07;1.40;;;;;;;;;;735395;191;922236;-57
2022/07/12 07:40:15;;;;;;;2.13;0.90;;;;;;;;;;742454;188;919133;-59
2022/07/12 07:42:41;;;;;;;3.10;1.00;;;;;;;;;;736116;187;915220;-60
2022/07/12 07:45:07;;;;;;;7.60;1.50;;;;;;;;;;740831;184;826888;-56
2022/07/12 07:47:33;;;;;;;2.90;1.13;;;;;;;;;;732675;191;912550;-56
2022/07/12 07:49:58;;;;;;;2.10;1.03;;;;;;;;;;733009;188;899477;-59
2022/07/12 07:52:24;;;;;;;2.30;0.97;;;;;;;;;;735707;187;990229;-59
2022/07/12 07:54:50;;;;;;;2.00;1.00;;;;;;;;;;742854;189;919173;-58
2022/07/12 07:57:16;;;;;;;1.80;0.90;;;;;;;;;;738954;186;920002;-56
2022/07/12 07:59:42;;;;;;;55.03;8.47;;;;;;;;;;737906;187;918543;-56
2022/07/12 08:02:08;;;;;;;3.60;1.47;;;;;;;;;;740540;187;920895;-56
2022/07/12 08:04:34;;;;;;;4.10;1.70;;;;;;;;;;752967;184;810739;-58
2022/07/12 08:06:59;;;;;;;2.07;0.90;;;;;;;;;;729630;188;919119;-55
2022/07/12 08:09:25;;;;;;;10.68;1.70;;;;;;;;;;736387;189;915083;-60
2022/07/12 08:11:51;;;;;;;1.83;0.87;;;;;;;;;;745346;187;828127;-56
2022/07/12 08:14:17;;;;;;;2.97;1.25;;;;;;;;;;736416;187;854479;-63
2022/07/12 08:16:43;;;;;;;2.30;0.90;;;;;;;;;;737257;188;920055;-58
2022/07/12 08:19:09;;;;;;;2.97;1.10;;;;;;;;;;746318;187;774177;-57
2022/07/12 08:21:34;;;;;;;2.60;1.30;;;;;;;;;;741269;187;938637;-56
2022/07/12 08:24:00;;;;;;;47.00;9.13;;;;;;;;;;738397;187;919560;-57
2022/07/12 08:26:26;;;;;;;2.70;1.20;;;;;;;;;;738440;184;921748;-59
2022/07/12 08:28:52;;;;;;;19.13;3.83;;;;;;;;;;744862;187;918859;-55
2022/07/12 08:31:18;;;;;;;2.07;0.93;;;;;;;;;;738738;186;918636;-58
2022/07/12 08:33:44;;;;;;;1.80;0.85;;;;;;;;;;741206;187;819599;-55
2022/07/12 08:36:10;;;;;;;1.80;0.80;;;;;;;;;;743523;187;919246;-58
2022/07/12 08:38:36;;;;;;;2.23;0.90;;;;;;;;;;738106;187;915978;-56
2022/07/12 08:41:01;;;;;;;3.55;0.80;;;;;;;;;;737301;187;923666;-56
2022/07/12 08:43:27;;;;;;;1.90;0.97;;;;;;;;;;741469;187;920353;-55
2022/07/12 08:45:53;;;;;;;2.07;0.80;;;;;;;;;;737005;187;849370;-54
2022/07/12 08:48:19;;;;;;;2.27;0.90;;;;;;;;;;736838;187;778674;-57
2022/07/12 08:50:45;;;;;;;7.30;1.00;;;;;;;;;;743875;187;918109;-58
2022/07/12 08:53:11;;;;;;;2.00;0.80;;;;;;;;;;736127;187;820878;-55
2022/07/12 08:55:37;;;;;;;2.10;1.00;;;;;;;;;;736471;187;900670;-57
2022/07/12 08:58:02;;;;;;;1.75;0.82;;;;;;;;;;739952;187;919180;-55
2022/07/12 09:00:28;;;;;;;2.00;0.93;;;;;;;;;;742202;185;917107;-56
2022/07/12 09:02:54;;;;;;;1.80;0.80;;;;;;;;;;731074;191;919935;-55
2022/07/12 09:05:20;;;;;;;1.73;0.73;;;;;;;;;;736425;187;918311;-55
2022/07/12 09:07:46;;;;;;;2.23;1.10;;;;;;;;;;741769;187;900964;-55
2022/07/12 09:10:12;;;;;;;61.97;7.47;;;;;;;;;;737476;186;939336;-54
2022/07/12 09:12:37;;;;;;;2.63;1.10;;;;;;;;;;738087;187;948878;-59
2022/07/12 09:15:09;;;;;;;2.97;0.90;;;;;;;;;;748066;183;918504;-59
2022/07/12 09:17:35;;;;;;;1.77;0.90;;;;;;;;;;741611;187;811540;-60
2022/07/12 09:20:01;;;;;;;156.00;20.07;;;;;;;;;;736532;187;919331;-56
2022/07/12 09:22:27;;;;;;;6.53;2.13;;;;;;;;;;737457;188;918686;-58
2022/07/12 09:24:53;;;;;;;2.40;1.20;;;;;;;;;;739598;187;919624;-57
2022/07/12 09:27:18;;;;;;;15.03;1.93;;;;;;;;;;736025;187;921244;-55
2022/07/12 09:29:46;;;;;;;12.23;1.80;;;;;;;;;;737780;187;917837;-58
2022/07/12 09:37:15;;;;;;;336.53;45.13;;;;;;;;;;742078;187;816573;-55
2022/07/12 09:39:41;;;;;;;7.00;1.83;;;;;;;;;;734485;186;816368;-55
2022/07/12 09:42:07;;;;;;;2.87;1.10;;;;;;;;;;737086;189;770474;-54
2022/07/12 09:44:33;;;;;;;3.80;1.30;;;;;;;;;;740149;187;919527;-58
2022/07/12 09:47:00;;;;;;;2.37;1.17;;;;;;;;;;740012;187;818944;-54
2022/07/12 09:49:24;;;;;;;4.53;1.10;;;;;;;;;;735802;187;919281;-54
2022/07/12 09:51:50;;;;;;;2.30;0.90;;;;;;;;;;733789;191;816108;-58
2022/07/12 09:54:16;;;;;;;2.43;1.13;;;;;;;;;;734893;184;913876;-53
2022/07/12 09:56:42;;;;;;;2.20;0.90;;;;;;;;;;732048;191;919248;-58
2022/07/12 09:59:08;;;;;;;2.10;0.93;;;;;;;;;;743794;188;821278;-54
2022/07/12 10:01:34;;;;;;;2.03;1.03;;;;;;;;;;740928;187;919028;-57
2022/07/12 10:03:59;;;;;;;2.43;0.90;;;;;;;;;;742373;187;922878;-55
2022/07/12 10:06:25;;;;;;;2.33;1.00;;;;;;;;;;744155;187;917823;-53
2022/07/12 10:08:51;;;;;;;2.43;1.33;;;;;;;;;;738351;188;928930;-55
2022/07/12 10:11:17;;;;;;;1.90;1.00;;;;;;;;;;739253;187;919460;-53
2022/07/12 10:13:43;;;;;;;2.33;1.00;;;;;;;;;;739394;187;819336;-57
2022/07/12 10:16:09;;;;;;;5.80;1.40;;;;;;;;;;747082;186;920010;-57
2022/07/12 10:18:35;;;;;;;3.23;1.20;;;;;;;;;;737894;187;919349;-58
2022/07/12 10:21:00;;;;;;;1.90;1.00;;;;;;;;;;738974;187;816499;-57
2022/07/12 10:23:26;;;;;;;1.90;0.90;;;;;;;;;;744165;187;818432;-54
2022/07/12 10:25:53;;;;;;;3.50;1.10;;;;;;;;;;737109;187;817036;-55
2022/07/12 10:28:18;;;;;;;1.90;0.93;;;;;;;;;;738949;187;919607;-58
2022/07/12 10:30:44;;;;;;;2.20;1.00;;;;;;;;;;740581;187;927882;-58
2022/07/12 10:33:22;;;;;;;2.10;1.00;;;;;;;;;;737644;187;896755;-57
2022/07/12 10:35:54;;;;;;;4.70;1.10;;;;;;;;;;740052;187;817758;-57
2022/07/12 10:38:21;;;;;;;2.27;1.20;;;;;;;;;;740902;187;911920;-54
2022/07/12 10:40:46;;;;;;;2.40;1.00;;;;;;;;;;738041;187;1049081;-55
2022/07/12 10:43:12;;;;;;;2.27;1.03;;;;;;;;;;742159;186;817597;-58
2022/07/12 10:45:38;;;;;;;1.97;0.90;;;;;;;;;;736384;187;920920;-55
2022/07/12 10:48:04;;;;;;;2.50;1.20;;;;;;;;;;742187;187;660183;-58
2022/07/12 10:50:36;;;;;;;2.67;0.90;;;;;;;;;;744586;187;649850;-55
2022/07/12 10:53:02;;;;;;;2.27;1.30;;;;;;;;;;739864;184;634979;-58
2022/07/12 10:55:28;;;;;;;3.43;0.97;;;;;;;;;;733388;187;640782;-54
2022/07/12 10:57:54;;;;;;;3.97;1.30;;;;;;;;;;740991;187;641438;-58
2022/07/12 11:00:21;;;;;;;2.00;0.80;;;;;;;;;;747084;185;627664;-57
2022/07/12 11:02:45;;;;;;;2.00;0.90;;;;;;;;;;739129;187;815921;-59
2022/07/12 11:05:11;;;;;;;1.80;0.90;;;;;;;;;;735882;187;951491;-58
2022/07/12 11:07:38;;;;;;;1.70;0.77;;;;;;;;;;741141;187;918857;-54
2022/07/12 11:10:03;;;;;;;1.70;0.73;;;;;;;;;;735133;187;838663;-58
2022/07/12 11:12:29;;;;;;;5.97;1.10;;;;;;;;;;734147;191;646022;-58
2022/07/12 11:14:55;;;;;;;2.57;0.97;;;;;;;;;;741829;188;613834;-58
2022/07/12 11:17:21;;;;;;;4.47;1.10;;;;;;;;;;737680;187;816245;-58
2022/07/12 11:19:47;;;;;;;1.90;0.90;;;;;;;;;;737312;187;818994;-54
2022/07/12 11:22:13;;;;;;;2.00;1.10;;;;;;;;;;739298;187;861531;-58
2022/07/12 11:24:39;;;;;;;1.90;0.90;;;;;;;;;;741264;183;919099;-55
2022/07/12 11:27:05;;;;;;;2.53;0.70;;;;;;;;;;734049;187;925436;-55
2022/07/12 11:29:31;;;;;;;3.90;0.80;;;;;;;;;;733461;189;817489;-55
2022/07/12 11:32:00;;;;;;;3.40;1.17;;;;;;;;;;747076;185;617765;-58
2022/07/12 11:34:26;;;;;;;2.30;0.90;;;;;;;;;;735645;188;617013;-53
2022/07/12 11:36:53;;;;;;;1.90;0.80;;;;;;;;;;739502;188;763817;-55
2022/07/12 11:39:25;;;;;;;2.63;0.97;;;;;;;;;;743168;187;816109;-54
2022/07/12 11:41:55;;;;;;;1.90;0.80;;;;;;;;;;741772;187;922438;-54
2022/07/12 11:44:20;;;;;;;2.20;0.80;;;;;;;;;;737658;187;917952;-55
2022/07/12 11:46:49;;;;;;;1.80;0.80;;;;;;;;;;738284;187;914291;-58
2022/07/12 11:49:15;;;;;;;25.45;1.70;;;;;;;;;;744203;187;918834;-54
2022/07/12 11:51:41;;;;;;;4.60;1.00;;;;;;;;;;732365;186;1739228;-55
2022/07/12 11:54:07;;;;;;;55.20;5.07;;;;;;;;;;737003;187;918470;-55
2022/07/12 11:56:33;;;;;;;2.37;1.20;;;;;;;;;;739730;187;918053;-56
2022/07/12 11:58:58;;;;;;;9.90;3.53;;;;;;;;;;745715;183;918780;-56
2022/07/12 12:01:25;;;;;;;1.90;0.80;;;;;;;;;;742604;183;919886;-55
2022/07/12 12:03:51;;;;;;;2.00;0.90;;;;;;;;;;728380;188;919440;-54
2022/07/12 12:06:16;;;;;;;5.03;1.57;;;;;;;;;;749803;184;717568;-58
2022/07/12 12:08:42;;;;;;;1.70;0.77;;;;;;;;;;736623;184;918437;-55
2022/07/12 12:11:09;;;;;;;2.00;0.90;;;;;;;;;;742416;187;818342;-55
2022/07/12 12:13:34;;;;;;;2.70;0.80;;;;;;;;;;742656;187;915725;-56
2022/07/12 12:15:59;;;;;;;6.90;1.00;;;;;;;;;;740114;189;853599;-55
2022/07/12 12:18:27;;;;;;;1.90;0.90;;;;;;;;;;739058;185;915276;-58
2022/07/12 12:20:53;;;;;;;1.90;1.20;;;;;;;;;;738238;187;917736;-55
2022/07/12 12:23:19;;;;;;;3.50;1.00;;;;;;;;;;741635;189;919324;-55
2022/07/12 12:25:45;;;;;;;2.27;0.90;;;;;;;;;;728300;189;922493;-55
2022/07/12 12:28:11;;;;;;;79.57;15.97;;;;;;;;;;734955;187;914243;-58
2022/07/12 12:30:36;;;;;;;23.07;4.57;;;;;;;;;;742384;187;833104;-56
2022/07/12 12:33:02;;;;;;;7.20;1.70;;;;;;;;;;734246;189;915868;-60
2022/07/12 12:35:30;;;;;;;2.95;1.62;;;;;;;;;;737544;187;878466;-56
2022/07/12 12:37:57;;;;;;;1.90;0.80;;;;;;;;;;740506;189;919143;-56
2022/07/12 12:40:23;;;;;;;1.90;0.90;;;;;;;;;;743078;187;927443;-58
2022/07/12 12:42:48;;;;;;;4.23;0.90;;;;;;;;;;739064;185;917565;-55
2022/07/12 12:45:20;;;;;;;9.80;2.40;;;;;;;;;;740619;184;919244;-59
2022/07/12 12:47:51;;;;;;;4.67;1.60;;;;;;;;;;736047;187;919629;-59
2022/07/12 12:50:17;;;;;;;2.57;0.80;;;;;;;;;;738074;187;815756;-59
2022/07/12 12:52:42;;;;;;;2.00;1.00;;;;;;;;;;739805;187;806457;-57
2022/07/12 12:55:08;;;;;;;5.28;1.23;;;;;;;;;;741190;183;872911;-59
2022/07/12 12:57:34;;;;;;;2.30;1.20;;;;;;;;;;741462;188;616804;-55
2022/07/12 13:00:00;;;;;;;3.60;1.30;;;;;;;;;;736659;188;637014;-56
2022/07/12 13:02:26;;;;;;;3.00;1.17;;;;;;;;;;742480;187;628306;-55
2022/07/12 13:04:52;;;;;;;9.93;3.00;;;;;;;;;;747923;187;616919;-56
2022/07/12 13:07:18;;;;;;;5.60;1.70;;;;;;;;;;743741;187;628429;-55
2022/07/12 13:09:43;;;;;;;12.23;2.30;;;;;;;;;;744443;187;621813;-54
2022/07/12 13:12:10;;;;;;;2.80;1.10;;;;;;;;;;747370;187;616092;-55
2022/07/12 13:14:35;;;;;;;65.07;15.20;;;;;;;;;;741917;187;634679;-58
2022/07/12 13:17:01;;;;;;;3.83;1.50;;;;;;;;;;743633;187;629947;-54
2022/07/12 13:19:27;;;;;;;11.63;3.43;;;;;;;;;;736937;187;918794;-58
2022/07/12 13:21:53;;;;;;;2.20;0.80;;;;;;;;;;740981;187;615291;-54
2022/07/12 13:24:18;;;;;;;6.83;1.00;;;;;;;;;;747809;187;658014;-58
2022/07/12 13:26:44;;;;;;;5.50;1.43;;;;;;;;;;734010;188;621855;-55
2022/07/12 13:29:10;;;;;;;3.50;0.80;;;;;;;;;;741434;188;620419;-58
2022/07/12 13:31:36;;;;;;;10.17;3.40;;;;;;;;;;738594;187;689241;-55
2022/07/12 13:34:02;;;;;;;3.30;1.50;;;;;;;;;;739408;187;629994;-54
2022/07/12 13:36:28;;;;;;;3.70;2.07;;;;;;;;;;743998;187;637628;-55
2022/07/12 13:38:54;;;;;;;7.73;1.50;;;;;;;;;;741782;187;640444;-55
2022/07/12 13:41:19;;;;;;;2.47;1.03;;;;;;;;;;741440;188;633858;-55
2022/07/12 13:43:45;;;;;;;5.80;2.07;;;;;;;;;;743432;187;729750;-58
2022/07/12 13:46:11;;;;;;;3.17;1.10;;;;;;;;;;748392;187;625129;-58
2022/07/12 13:48:37;;;;;;;2.30;1.10;;;;;;;;;;744826;187;624233;-58
2022/07/12 13:51:03;;;;;;;6.13;0.90;;;;;;;;;;742303;187;613632;-55
2022/07/12 13:53:29;;;;;;;2.80;1.50;;;;;;;;;;744403;187;618901;-58
2022/07/12 13:55:54;;;;;;;3.70;1.23;;;;;;;;;;738215;186;951543;-54
2022/07/12 13:58:20;;;;;;;14.57;1.77;;;;;;;;;;746492;184;626483;-58
2022/07/12 14:00:46;;;;;;;2.90;1.30;;;;;;;;;;740226;190;617557;-54
2022/07/12 14:03:12;;;;;;;3.83;1.27;;;;;;;;;;741806;187;677171;-56
2022/07/12 14:05:38;;;;;;;2.57;1.10;;;;;;;;;;740027;187;628073;-54
2022/07/12 14:08:05;;;;;;;374.90;59.22;;;;;;;;;;751087;185;625768;-55
2022/07/12 14:10:33;;;;;;;13.60;2.20;;;;;;;;;;736270;186;625100;-57
2022/07/12 14:12:56;;;;;;;3.53;1.20;;;;;;;;;;734058;191;628237;-55
2022/07/12 14:17:54;;;;;;;2.10;1.10;;;;;;;;;;748454;187;639524;-58
2022/07/12 14:20:20;;;;;;;2.10;1.13;;;;;;;;;;741236;187;625795;-55
2022/07/12 14:22:45;;;;;;;2.37;0.93;;;;;;;;;;733427;187;710988;-54
2022/07/12 14:25:11;;;;;;;5.07;1.20;;;;;;;;;;745637;188;625038;-54
2022/07/12 14:27:37;;;;;;;2.20;1.30;;;;;;;;;;744707;187;633450;-54
2022/07/12 14:30:03;;;;;;;2.53;1.00;;;;;;;;;;742562;187;621873;-57